This is the latest recevied weather packets stored in our database for station/object N9DMT-13. If no packets are shown the sender has not sent any weather packets the latest 10 day(s).
| Time | Temp. | Humidity | Pressure | Rain* | Wind** | Luminosity | Snow |
|---|---|---|---|---|---|---|---|
| 1777660384 | 10.56° C | 41% | 985 hPa | 0 mm | - | - | - |
| 1777660082 | 10.56° C | 41% | 984.7 hPa | 0 mm | - | - | - |
| 1777659782 | 11.67° C | 40% | 984.7 hPa | 0 mm | - | - | - |
| 1777659481 | 12.22° C | 40% | 984.6 hPa | 0 mm | - | - | - |
| 1777659180 | 11.67° C | 43% | 984.7 hPa | 0 mm | - | - | - |
| 1777658879 | 11.11° C | 39% | 984.8 hPa | 0 mm | - | - | - |
| 1777658578 | 11.11° C | 40% | 985 hPa | 0 mm | - | - | - |
| 1777658277 | 11.11° C | 38% | 984.9 hPa | 0 mm | - | - | - |
| 1777657977 | 11.11° C | 41% | 984.8 hPa | 0 mm | - | - | - |
| 1777657676 | 10° C | 42% | 984.9 hPa | 0 mm | - | - | - |
| 1777657375 | 10° C | 40% | 984.8 hPa | 0 mm | - | - | - |
| 1777657074 | 10° C | 41% | 985 hPa | 0 mm | - | - | - |
| 1777656773 | 10° C | 44% | 984.9 hPa | 0 mm | - | - | - |
| 1777656472 | 10° C | 43% | 984.9 hPa | 0 mm | - | - | - |
| 1777656171 | 10.56° C | 42% | 984.9 hPa | 0 mm | - | - | - |
| 1777655871 | 10° C | 44% | 985.2 hPa | 0 mm | - | - | - |
| 1777655570 | 10° C | 43% | 985.2 hPa | 0 mm | - | - | - |
| 1777655269 | 10.56° C | 43% | 984.9 hPa | 0 mm | - | - | - |
| 1777654968 | 9.44° C | 44% | 985.2 hPa | 0 mm | - | - | - |
| 1777654668 | 9.44° C | 44% | 985.1 hPa | 0 mm | - | - | - |
| 1777654367 | 10° C | 44% | 985.1 hPa | 0 mm | - | - | - |
| 1777654066 | 10.56° C | 43% | 985 hPa | 0 mm | - | - | - |
| 1777653765 | 11.11° C | 46% | 985.1 hPa | 0 mm | - | - | - |
| 1777653465 | 11.11° C | 42% | 984.8 hPa | 0 mm | - | - | - |
| 1777653164 | 10.56° C | 44% | 985.2 hPa | 0 mm | - | - | - |
* Rain latest hour (hover to see other rain measurements)
** Current wind speed in m/s (hover to see current wind gust speed)